Time;durP1;ratioP1;P1;durP2;ratioP2;P2;SDS_P1;SDS_P2;PMS_P1;PMS_P2;Temp;Humidity;BMP_temperature;BMP_pressure;BME280_temperature;BME280_humidity;BME280_pressure;Samples;Min_cycle;Max_cycle;Signal;HPM_P1;HPM_P2
2022/03/02 00:01:36;;;;;;;22.42;12.20;;;4.40;82.20;;;;;;5063359;28;20083;-58
2022/03/02 00:04:02;;;;;;;25.33;12.07;;;4.40;82.30;;;;;;5068572;28;20035;-58
2022/03/02 00:06:28;;;;;;;21.85;11.80;;;4.40;82.40;;;;;;5066815;28;20547;-58
2022/03/02 00:08:54;;;;;;;20.67;11.52;;;4.40;82.40;;;;;;5066265;28;20101;-58
2022/03/02 00:11:19;;;;;;;22.42;11.75;;;4.40;82.50;;;;;;5066617;28;20032;-58
2022/03/02 00:13:45;;;;;;;21.52;11.65;;;4.30;82.50;;;;;;5069273;28;20043;-58
2022/03/02 00:16:12;;;;;;;25.25;12.93;;;4.30;82.50;;;;;;5068474;28;20982;-58
2022/03/02 00:18:38;;;;;;;21.85;11.75;;;4.30;82.70;;;;;;5068381;28;20016;-58
2022/03/02 00:21:04;;;;;;;29.90;12.98;;;4.30;82.80;;;;;;5067998;28;20082;-58
2022/03/02 00:23:30;;;;;;;22.92;12.07;;;4.30;82.90;;;;;;5067827;28;20020;-58
2022/03/02 00:25:56;;;;;;;21.55;10.93;;;4.30;82.90;;;;;;5069288;28;20021;-58
2022/03/02 00:28:22;;;;;;;25.35;12.93;;;4.30;83.00;;;;;;5066369;28;20032;-58
2022/03/02 00:30:48;;;;;;;22.33;10.65;;;4.30;82.90;;;;;;5070309;28;20439;-59
2022/03/02 00:33:14;;;;;;;24.00;12.23;;;4.30;82.90;;;;;;5064534;28;20129;-59
2022/03/02 00:35:40;;;;;;;26.75;13.75;;;4.30;83.10;;;;;;5069093;28;20476;-58
2022/03/02 00:38:10;;;;;;;25.90;13.25;;;4.30;83.10;;;;;;5069453;28;20031;-58
2022/03/02 00:40:38;;;;;;;23.95;13.35;;;4.30;82.90;;;;;;5067131;28;20040;-58
2022/03/02 00:43:04;;;;;;;20.90;10.98;;;4.30;83.20;;;;;;5068749;28;20472;-59
2022/03/02 00:45:31;;;;;;;23.85;10.35;;;4.30;83.10;;;;;;5062917;28;20020;-58
2022/03/02 00:48:00;;;;;;;23.75;13.07;;;4.30;83.20;;;;;;5070045;28;20052;-58
2022/03/02 00:50:26;;;;;;;21.75;11.18;;;4.30;83.30;;;;;;5060945;28;20492;-58
2022/03/02 00:52:51;;;;;;;25.17;11.07;;;4.30;83.20;;;;;;5067962;28;20020;-58
2022/03/02 00:55:17;;;;;;;26.80;12.23;;;4.30;83.30;;;;;;5066130;28;20495;-58
2022/03/02 00:57:44;;;;;;;25.95;12.43;;;4.30;83.40;;;;;;5068844;28;20032;-58
2022/03/02 01:00:12;;;;;;;34.40;18.00;;;4.30;83.40;;;;;;5059938;28;20060;-58
2022/03/02 01:02:38;;;;;;;27.23;11.93;;;4.30;83.70;;;;;;5067125;28;20369;-58
2022/03/02 01:05:05;;;;;;;28.50;12.00;;;4.30;83.60;;;;;;5065390;28;20040;-58
2022/03/02 01:07:31;;;;;;;26.38;13.05;;;4.30;83.60;;;;;;5064762;28;20036;-58
2022/03/02 01:09:57;;;;;;;20.45;11.23;;;4.30;83.90;;;;;;5065928;28;20569;-58
2022/03/02 01:12:23;;;;;;;24.63;10.68;;;4.20;83.70;;;;;;5069867;28;20521;-58
2022/03/02 01:14:49;;;;;;;25.38;12.38;;;4.20;83.90;;;;;;5067208;28;20040;-58
2022/03/02 01:17:15;;;;;;;27.55;12.30;;;4.20;84.00;;;;;;5067006;28;20112;-58
2022/03/02 01:19:40;;;;;;;22.63;10.95;;;4.20;84.10;;;;;;5065260;28;20107;-58
2022/03/02 01:22:06;;;;;;;27.55;13.68;;;4.20;84.10;;;;;;5070310;28;20365;-58
2022/03/02 01:24:32;;;;;;;26.67;11.10;;;4.20;84.10;;;;;;5064196;28;20032;-58
2022/03/02 01:26:58;;;;;;;28.05;12.00;;;4.20;84.10;;;;;;5062361;28;20108;-58
2022/03/02 01:29:24;;;;;;;28.92;11.65;;;4.30;84.10;;;;;;5065317;28;20032;-58
2022/03/02 01:31:49;;;;;;;30.85;15.77;;;4.20;84.10;;;;;;5058786;28;20032;-58
2022/03/02 01:34:15;;;;;;;26.05;10.75;;;4.20;84.30;;;;;;5062762;28;20104;-58
2022/03/02 01:36:41;;;;;;;33.08;14.82;;;4.30;84.30;;;;;;5069517;28;20025;-58
2022/03/02 01:39:07;;;;;;;27.00;11.77;;;4.30;84.40;;;;;;5067713;28;20053;-58
2022/03/02 01:41:34;;;;;;;29.05;13.05;;;4.20;84.30;;;;;;5067499;28;20016;-58
2022/03/02 01:43:59;;;;;;;27.95;13.07;;;4.20;84.30;;;;;;5064004;28;20107;-58
2022/03/02 01:46:25;;;;;;;28.88;14.70;;;4.20;84.30;;;;;;5066716;28;20119;-58
2022/03/02 01:48:51;;;;;;;28.73;13.43;;;4.30;84.50;;;;;;5066127;28;20036;-58
2022/03/02 01:51:18;;;;;;;29.90;13.52;;;4.20;84.50;;;;;;5067582;28;20028;-58
2022/03/02 01:53:44;;;;;;;28.95;13.05;;;4.30;84.70;;;;;;5067345;28;20029;-58
2022/03/02 01:56:10;;;;;;;25.33;10.82;;;4.20;84.70;;;;;;5067171;28;20071;-59
2022/03/02 01:58:36;;;;;;;29.08;12.07;;;4.30;84.80;;;;;;5069742;28;20392;-58
2022/03/02 02:01:02;;;;;;;28.65;11.63;;;4.30;84.80;;;;;;5067612;28;20036;-58
2022/03/02 02:03:28;;;;;;;28.40;10.65;;;4.30;84.80;;;;;;5065607;28;20036;-58
2022/03/02 02:05:54;;;;;;;29.92;12.10;;;4.30;85.00;;;;;;5064617;28;20649;-58
2022/03/02 02:08:20;;;;;;;35.75;13.52;;;4.30;84.90;;;;;;5070740;28;20077;-58
2022/03/02 02:10:46;;;;;;;29.35;13.95;;;4.30;84.90;;;;;;5069471;28;20117;-58
2022/03/02 02:13:12;;;;;;;37.85;13.65;;;4.30;84.90;;;;;;5072055;28;20503;-58
2022/03/02 02:15:38;;;;;;;29.17;12.10;;;4.30;84.90;;;;;;5072224;28;20024;-58
2022/03/02 02:18:04;;;;;;;28.10;11.00;;;4.30;84.90;;;;;;5067543;28;20396;-58
2022/03/02 02:20:37;;;;;;;32.05;12.27;;;4.30;84.90;;;;;;5071736;28;20017;-58
2022/03/02 02:23:03;;;;;;;30.23;13.57;;;4.30;85.00;;;;;;5067320;28;20028;-58
2022/03/02 02:25:29;;;;;;;23.08;11.80;;;4.30;85.10;;;;;;5069577;28;20017;-58
2022/03/02 02:27:55;;;;;;;32.25;12.10;;;4.30;85.10;;;;;;5072075;28;20086;-59
2022/03/02 02:30:21;;;;;;;33.58;13.52;;;4.30;85.10;;;;;;5069968;28;20036;-58
2022/03/02 02:32:47;;;;;;;25.60;11.60;;;4.20;85.20;;;;;;5071730;28;20051;-58
2022/03/02 02:35:13;;;;;;;29.33;13.13;;;4.20;85.30;;;;;;5069302;28;20036;-58
2022/03/02 02:37:40;;;;;;;36.88;14.75;;;4.20;85.30;;;;;;5070850;28;20031;-59
2022/03/02 02:40:09;;;;;;;31.15;13.25;;;4.30;85.50;;;;;;5066759;28;20044;-58
2022/03/02 02:42:35;;;;;;;31.70;13.90;;;4.30;85.40;;;;;;5072339;28;20066;-58
2022/03/02 02:45:00;;;;;;;34.17;12.77;;;4.30;85.40;;;;;;5070381;28;20040;-58
2022/03/02 02:47:26;;;;;;;27.83;13.32;;;4.20;85.30;;;;;;5073571;28;20028;-58
2022/03/02 02:49:52;;;;;;;36.03;14.48;;;4.30;85.40;;;;;;5070286;28;20029;-58
2022/03/02 02:52:18;;;;;;;27.90;11.85;;;4.20;85.50;;;;;;5073922;28;20072;-58
2022/03/02 02:54:44;;;;;;;29.58;12.95;;;4.30;85.60;;;;;;5071437;28;20032;-59
2022/03/02 02:57:09;;;;;;;33.75;14.23;;;4.30;85.40;;;;;;5069588;28;20021;-58
2022/03/02 02:59:35;;;;;;;39.20;16.08;;;4.30;85.40;;;;;;5067447;28;20082;-59
2022/03/02 03:02:01;;;;;;;30.65;12.10;;;4.30;85.50;;;;;;5070916;28;20025;-58
2022/03/02 03:04:27;;;;;;;27.25;12.80;;;4.30;85.50;;;;;;5068550;28;20033;-58
2022/03/02 03:06:52;;;;;;;29.55;13.02;;;4.30;85.30;;;;;;5070422;28;20044;-58
2022/03/02 03:09:18;;;;;;;26.77;10.50;;;4.30;85.20;;;;;;5066584;28;20400;-58
2022/03/02 03:11:44;;;;;;;34.95;15.75;;;4.40;85.20;;;;;;5065143;28;20479;-58
2022/03/02 03:14:12;;;;;;;35.40;15.63;;;4.40;85.10;;;;;;5071840;28;20476;-58
2022/03/02 03:16:39;;;;;;;33.45;14.48;;;4.40;85.20;;;;;;5072305;28;20024;-58
2022/03/02 03:19:05;;;;;;;30.40;14.52;;;4.40;85.20;;;;;;5063740;28;20025;-58
2022/03/02 03:21:31;;;;;;;29.83;12.23;;;4.40;85.00;;;;;;5072598;28;20103;-58
2022/03/02 03:23:57;;;;;;;19.80;10.73;;;4.40;84.80;;;;;;5070043;28;20103;-58
2022/03/02 03:26:22;;;;;;;27.85;13.18;;;4.40;84.80;;;;;;5069429;28;20033;-58
2022/03/02 03:28:49;;;;;;;31.33;11.55;;;4.40;84.70;;;;;;5067656;28;20438;-58
2022/03/02 03:31:14;;;;;;;27.30;11.30;;;4.40;84.80;;;;;;5046118;28;20056;-58
2022/03/02 03:33:40;;;;;;;24.67;11.80;;;4.40;84.60;;;;;;5069735;28;20117;-59
2022/03/02 03:36:06;;;;;;;28.88;13.20;;;4.40;84.80;;;;;;5064666;28;20052;-58
2022/03/02 03:38:32;;;;;;;25.92;11.30;;;4.40;84.80;;;;;;5069551;28;20487;-58
2022/03/02 03:40:57;;;;;;;31.90;14.02;;;4.40;84.70;;;;;;5068920;28;20061;-58
2022/03/02 03:43:23;;;;;;;28.58;12.48;;;4.40;84.70;;;;;;5060693;28;20436;-58
2022/03/02 03:45:49;;;;;;;22.50;10.57;;;4.40;84.70;;;;;;5065337;28;20035;-58
2022/03/02 03:48:15;;;;;;;29.35;14.15;;;4.40;84.60;;;;;;5071517;28;20115;-58
2022/03/02 03:50:41;;;;;;;27.95;14.05;;;4.40;84.70;;;;;;5068608;28;20108;-58
2022/03/02 03:53:08;;;;;;;29.33;13.60;;;4.40;84.80;;;;;;5070159;28;20056;-59
2022/03/02 03:55:34;;;;;;;24.83;11.57;;;4.40;84.40;;;;;;5073693;28;20479;-58
2022/03/02 03:58:00;;;;;;;22.55;10.13;;;4.40;84.60;;;;;;5071775;28;20116;-58
2022/03/02 04:00:26;;;;;;;25.85;11.60;;;4.40;84.60;;;;;;5066329;28;20115;-59
2022/03/02 04:02:51;;;;;;;23.95;11.20;;;4.40;84.50;;;;;;5067155;28;20036;-58
2022/03/02 04:05:17;;;;;;;23.13;10.63;;;4.30;84.60;;;;;;5067572;28;20025;-58
2022/03/02 04:07:44;;;;;;;22.92;10.10;;;4.30;84.60;;;;;;5068796;28;20063;-58
2022/03/02 04:10:10;;;;;;;24.27;10.63;;;4.30;84.60;;;;;;5063557;28;20476;-58
2022/03/02 04:12:36;;;;;;;25.25;11.27;;;4.30;84.70;;;;;;5068934;28;20107;-58
2022/03/02 04:15:04;;;;;;;20.27;9.30;;;4.30;84.70;;;;;;5064274;28;20079;-58
2022/03/02 04:17:30;;;;;;;19.08;9.60;;;4.30;84.90;;;;;;5064205;28;20074;-58
2022/03/02 04:19:56;;;;;;;24.05;10.75;;;4.30;84.80;;;;;;5066723;28;20024;-59
2022/03/02 04:22:23;;;;;;;21.33;10.90;;;4.30;84.90;;;;;;5069529;28;20039;-58
2022/03/02 04:24:49;;;;;;;28.20;13.80;;;4.40;84.90;;;;;;5068666;28;20040;-58
2022/03/02 04:27:14;;;;;;;27.27;12.10;;;4.40;84.80;;;;;;5068439;28;20740;-58
2022/03/02 04:29:40;;;;;;;30.13;14.90;;;4.40;84.80;;;;;;5068546;28;20031;-58
2022/03/02 04:32:07;;;;;;;24.10;10.57;;;4.40;84.80;;;;;;5069033;28;20040;-58
2022/03/02 04:34:32;;;;;;;24.75;11.18;;;4.40;84.70;;;;;;5067436;28;20074;-58
2022/03/02 04:36:58;;;;;;;25.25;13.70;;;4.40;84.70;;;;;;5069472;28;20468;-58
2022/03/02 04:39:24;;;;;;;22.65;11.40;;;4.40;84.60;;;;;;5068642;28;20460;-59
2022/03/02 04:41:50;;;;;;;21.17;10.10;;;4.40;84.60;;;;;;5070582;28;20075;-58
2022/03/02 04:44:15;;;;;;;22.98;10.48;;;4.40;84.60;;;;;;5066220;28;20087;-59
2022/03/02 04:46:41;;;;;;;26.38;11.27;;;4.40;84.60;;;;;;5065956;28;20081;-59
2022/03/02 04:49:10;;;;;;;16.13;8.20;;;4.40;84.60;;;;;;5066124;28;20519;-58
2022/03/02 04:51:42;;;;;;;24.60;9.38;;;4.40;84.50;;;;;;5070890;28;20499;-59
2022/03/02 04:54:07;;;;;;;24.52;11.77;;;4.40;84.50;;;;;;5065374;28;20025;-58
2022/03/02 04:56:34;;;;;;;24.48;11.57;;;4.40;84.60;;;;;;5066880;28;20027;-58
2022/03/02 04:59:03;;;;;;;27.65;11.48;;;4.40;84.60;;;;;;5067371;28;20569;-58
2022/03/02 05:01:30;;;;;;;16.13;9.32;;;4.40;84.50;;;;;;5069435;28;20464;-58
2022/03/02 05:03:55;;;;;;;22.52;10.20;;;4.50;84.40;;;;;;5069167;28;20021;-58
2022/03/02 05:06:21;;;;;;;24.63;10.50;;;4.50;84.30;;;;;;5063518;28;20391;-59
2022/03/02 05:08:47;;;;;;;24.67;11.82;;;4.50;84.20;;;;;;5070478;28;20361;-58
2022/03/02 05:11:12;;;;;;;26.65;14.80;;;4.40;84.10;;;;;;5070792;28;20028;-58
2022/03/02 05:13:38;;;;;;;23.42;11.57;;;4.40;84.30;;;;;;5058085;28;20028;-58
2022/03/02 05:16:04;;;;;;;18.92;10.07;;;4.50;84.20;;;;;;5072434;28;20032;-59
2022/03/02 05:18:30;;;;;;;20.10;9.73;;;4.50;84.10;;;;;;5067856;28;20031;-59
2022/03/02 05:20:55;;;;;;;18.50;9.30;;;4.50;84.10;;;;;;5071125;28;20060;-58
2022/03/02 05:23:21;;;;;;;20.58;10.68;;;4.50;84.10;;;;;;5060712;28;20021;-58
2022/03/02 05:25:47;;;;;;;19.00;9.52;;;4.50;84.10;;;;;;5069462;28;20017;-58
2022/03/02 05:28:12;;;;;;;23.13;11.15;;;4.50;84.10;;;;;;5069966;28;20498;-59
2022/03/02 05:30:38;;;;;;;22.67;9.48;;;4.50;84.00;;;;;;5072870;28;20056;-58
2022/03/02 05:33:04;;;;;;;16.38;10.68;;;4.50;83.90;;;;;;5070052;28;20056;-59
2022/03/02 05:35:30;;;;;;;17.20;9.73;;;4.50;84.00;;;;;;5073515;28;20024;-58
2022/03/02 05:37:55;;;;;;;18.00;9.77;;;4.50;83.90;;;;;;5068037;28;20078;-58
2022/03/02 05:40:21;;;;;;;20.95;13.35;;;4.50;83.90;;;;;;5070716;28;20048;-58
2022/03/02 05:42:47;;;;;;;20.85;10.73;;;4.50;84.00;;;;;;5071603;28;20056;-59
2022/03/02 05:45:13;;;;;;;20.38;9.15;;;4.50;84.00;;;;;;5068797;28;20139;-59
2022/03/02 05:47:40;;;;;;;20.23;9.55;;;4.50;83.90;;;;;;5065140;28;20040;-59
2022/03/02 05:50:08;;;;;;;19.40;10.65;;;4.50;83.90;;;;;;5069763;28;20115;-59
2022/03/02 05:52:34;;;;;;;19.50;9.38;;;4.50;83.80;;;;;;5071237;28;20036;-59
2022/03/02 05:55:00;;;;;;;21.58;10.98;;;4.50;83.70;;;;;;5068258;28;20024;-59
2022/03/02 05:57:25;;;;;;;19.33;10.43;;;4.40;83.70;;;;;;5065761;28;20029;-59
2022/03/02 05:59:52;;;;;;;17.33;9.00;;;4.40;83.90;;;;;;5066951;28;20087;-60
2022/03/02 06:02:17;;;;;;;15.57;10.25;;;4.40;83.90;;;;;;5066207;28;20027;-59
2022/03/02 06:04:43;;;;;;;19.02;12.60;;;4.40;83.90;;;;;;5068234;28;20032;-59
2022/03/02 06:07:09;;;;;;;18.48;10.65;;;4.40;83.90;;;;;;5067386;28;20031;-59
2022/03/02 06:09:35;;;;;;;19.00;11.55;;;4.40;83.90;;;;;;5071526;28;20029;-59
2022/03/02 06:12:01;;;;;;;21.13;11.82;;;4.40;84.00;;;;;;5065899;28;20453;-58
2022/03/02 06:14:27;;;;;;;18.52;10.05;;;4.40;84.00;;;;;;5071787;28;20053;-59
2022/03/02 06:16:53;;;;;;;16.15;9.00;;;4.40;84.00;;;;;;5067845;28;20055;-58
2022/03/02 06:19:19;;;;;;;15.85;9.48;;;4.30;83.70;;;;;;5070141;28;20014;-59
2022/03/02 06:21:47;;;;;;;18.77;10.55;;;4.30;83.80;;;;;;5069795;28;20033;-58
2022/03/02 06:24:14;;;;;;;19.90;11.40;;;4.30;83.90;;;;;;5067946;28;20055;-58
2022/03/02 06:26:41;;;;;;;22.77;11.15;;;4.30;84.10;;;;;;5076022;28;20453;-59
2022/03/02 06:29:07;;;;;;;21.05;11.30;;;4.30;84.10;;;;;;5069894;28;20020;-58
2022/03/02 06:31:34;;;;;;;16.15;8.77;;;4.30;84.10;;;;;;5067602;28;20449;-59
2022/03/02 06:33:59;;;;;;;23.15;11.07;;;4.30;84.20;;;;;;5069723;28;20032;-58
2022/03/02 06:36:25;;;;;;;16.70;9.63;;;4.30;84.20;;;;;;5070716;28;20097;-58
2022/03/02 06:38:51;;;;;;;16.02;8.70;;;4.30;84.10;;;;;;5061566;28;20056;-59
2022/03/02 06:41:29;;;;;;;15.70;9.15;;;4.30;84.10;;;;;;5067493;28;22638;-59
2022/03/02 06:44:02;;;;;;;20.52;12.00;;;4.30;84.10;;;;;;5068660;28;20813;-58
2022/03/02 06:46:46;;;;;;;21.38;10.27;;;4.30;84.10;;;;;;5064252;28;20078;-58
2022/03/02 06:49:28;;;;;;;17.02;8.88;;;4.30;84.10;;;;;;5060734;28;20097;-59
2022/03/02 06:51:58;;;;;;;17.45;9.30;;;4.30;84.10;;;;;;5068023;28;20039;-58
2022/03/02 06:54:30;;;;;;;15.68;10.00;;;4.30;84.00;;;;;;5066880;28;20127;-58
2022/03/02 06:57:01;;;;;;;19.80;10.15;;;4.30;83.90;;;;;;5068167;28;20035;-58
2022/03/02 06:59:38;;;;;;;17.63;11.02;;;4.30;84.00;;;;;;5069181;28;20016;-58
2022/03/02 07:02:05;;;;;;;20.25;10.38;;;4.30;84.00;;;;;;5067542;28;20032;-58
2022/03/02 07:04:39;;;;;;;15.85;8.98;;;4.30;84.10;;;;;;5064530;28;20476;-58
2022/03/02 07:07:05;;;;;;;15.35;8.20;;;4.30;84.10;;;;;;5065433;28;20037;-58
2022/03/02 07:09:33;;;;;;;19.30;10.20;;;4.30;84.00;;;;;;5065470;28;20039;-58
2022/03/02 07:12:00;;;;;;;20.27;11.02;;;4.30;84.00;;;;;;5068287;28;20416;-58
2022/03/02 07:14:29;;;;;;;17.10;9.50;;;4.30;84.10;;;;;;5069277;28;20032;-58
2022/03/02 07:16:57;;;;;;;19.08;10.13;;;4.30;84.10;;;;;;5060338;28;20024;-58
2022/03/02 07:19:23;;;;;;;18.80;9.80;;;4.30;84.00;;;;;;5065747;28;20052;-58
2022/03/02 07:21:50;;;;;;;15.95;9.52;;;4.40;84.10;;;;;;5066548;28;20031;-58
2022/03/02 07:24:17;;;;;;;16.52;8.75;;;4.40;84.10;;;;;;5064771;28;20033;-57
2022/03/02 07:26:54;;;;;;;15.25;9.13;;;4.40;84.00;;;;;;5060429;28;20036;-57
2022/03/02 07:29:22;;;;;;;15.05;8.05;;;4.40;83.90;;;;;;5064902;28;20032;-57
2022/03/02 07:31:51;;;;;;;18.27;10.00;;;4.40;83.80;;;;;;5069455;28;20517;-58
2022/03/02 07:34:16;;;;;;;14.40;8.45;;;4.50;83.90;;;;;;5067419;28;20129;-58
2022/03/02 07:36:42;;;;;;;17.73;9.13;;;4.40;83.80;;;;;;5066953;28;20055;-58
2022/03/02 07:39:09;;;;;;;14.82;8.15;;;4.40;83.80;;;;;;5071821;28;20299;-58
2022/03/02 07:41:35;;;;;;;20.00;11.63;;;4.40;83.80;;;;;;5067682;28;20215;-59
2022/03/02 07:44:03;;;;;;;15.38;8.98;;;4.50;84.00;;;;;;5061568;28;20064;-59
2022/03/02 07:46:29;;;;;;;15.73;8.40;;;4.50;83.80;;;;;;5067968;28;20017;-59
2022/03/02 07:48:58;;;;;;;18.25;9.80;;;4.50;83.90;;;;;;5069379;28;20104;-59
2022/03/02 07:51:26;;;;;;;19.83;10.23;;;4.50;83.90;;;;;;5059325;28;20028;-58
2022/03/02 07:53:58;;;;;;;19.38;9.50;;;4.50;83.80;;;;;;5060447;28;20104;-58
2022/03/02 07:56:28;;;;;;;14.55;8.95;;;4.50;83.70;;;;;;5063213;28;20023;-59
2022/03/02 07:59:05;;;;;;;15.50;8.65;;;4.50;83.60;;;;;;5059991;28;20023;-59
2022/03/02 08:01:36;;;;;;;16.05;9.85;;;4.50;83.70;;;;;;5052025;28;20795;-59
2022/03/02 08:04:06;;;;;;;15.77;9.50;;;4.50;83.60;;;;;;5057663;28;20033;-59
2022/03/02 08:06:37;;;;;;;15.52;9.07;;;4.50;83.80;;;;;;5055251;28;20666;-60
2022/03/02 08:09:08;;;;;;;13.73;7.70;;;4.50;83.70;;;;;;5056326;28;20039;-59
2022/03/02 08:11:37;;;;;;;10.57;7.13;;;4.50;83.60;;;;;;5053904;28;20036;-59
2022/03/02 08:14:03;;;;;;;18.23;11.38;;;4.50;83.70;;;;;;5054143;28;20058;-59
2022/03/02 08:16:30;;;;;;;16.98;8.77;;;4.60;83.70;;;;;;5058011;28;20127;-60
2022/03/02 08:18:57;;;;;;;18.88;10.85;;;4.60;83.80;;;;;;5054305;28;20037;-59
2022/03/02 08:21:26;;;;;;;13.73;8.30;;;4.60;84.40;;;;;;5056012;28;20059;-58
2022/03/02 08:23:58;;;;;;;16.02;9.05;;;4.60;83.40;;;;;;5056720;28;20104;-58
2022/03/02 08:26:25;;;;;;;14.40;8.80;;;4.60;83.40;;;;;;5053308;28;20179;-59
2022/03/02 08:28:55;;;;;;;13.82;8.07;;;4.60;83.60;;;;;;5051054;28;20033;-58
2022/03/02 08:31:23;;;;;;;14.60;8.20;;;4.60;83.60;;;;;;5052153;28;20031;-58
2022/03/02 08:33:50;;;;;;;16.35;9.88;;;4.60;83.60;;;;;;5054342;28;20115;-57
2022/03/02 08:36:21;;;;;;;14.70;9.82;;;4.60;83.60;;;;;;5060541;28;20107;-58
2022/03/02 08:38:52;;;;;;;14.88;7.78;;;4.60;83.70;;;;;;5055353;28;20049;-58
2022/03/02 08:41:20;;;;;;;17.90;8.82;;;4.60;83.60;;;;;;5058055;28;20028;-58
2022/03/02 08:43:47;;;;;;;12.32;9.23;;;4.60;83.70;;;;;;5058429;28;20051;-58
2022/03/02 08:46:14;;;;;;;14.02;7.78;;;4.60;83.70;;;;;;5057910;28;20067;-57
2022/03/02 08:48:41;;;;;;;13.73;8.18;;;4.60;83.40;;;;;;5054580;28;20036;-58
2022/03/02 08:51:07;;;;;;;14.98;8.40;;;4.60;83.50;;;;;;5061345;28;20036;-58
2022/03/02 08:53:33;;;;;;;18.83;11.45;;;4.50;83.40;;;;;;5060458;28;21149;-58
2022/03/02 08:56:01;;;;;;;13.20;8.20;;;4.60;83.70;;;;;;5052619;28;20155;-57
2022/03/02 08:58:28;;;;;;;14.73;8.63;;;4.60;83.50;;;;;;5059253;28;23165;-58
2022/03/02 09:00:57;;;;;;;16.25;10.75;;;4.60;83.60;;;;;;5057027;28;20028;-58
2022/03/02 09:03:23;;;;;;;13.32;8.75;;;4.60;83.60;;;;;;5048818;28;20044;-58
2022/03/02 09:05:50;;;;;;;15.27;8.80;;;4.60;83.50;;;;;;5051358;28;20636;-57
2022/03/02 09:08:15;;;;;;;13.98;8.25;;;4.60;83.60;;;;;;5053026;28;20021;-57
2022/03/02 09:10:42;;;;;;;13.73;7.80;;;4.60;83.70;;;;;;5050327;28;20103;-57
2022/03/02 09:13:10;;;;;;;18.45;9.23;;;4.60;83.80;;;;;;5050224;28;20071;-57
2022/03/02 09:15:38;;;;;;;14.43;7.40;;;4.60;83.80;;;;;;5050601;28;20041;-56
2022/03/02 09:18:06;;;;;;;15.07;8.63;;;4.60;83.80;;;;;;5055590;28;20108;-57
2022/03/02 09:20:32;;;;;;;19.27;10.35;;;4.60;83.80;;;;;;5055582;28;20024;-57
2022/03/02 09:23:01;;;;;;;15.57;9.18;;;4.60;83.90;;;;;;5058544;28;20067;-57
2022/03/02 09:25:31;;;;;;;16.17;8.65;;;4.60;84.00;;;;;;5058320;28;20071;-57
2022/03/02 09:27:58;;;;;;;14.68;9.40;;;4.70;84.00;;;;;;5056232;28;20079;-57
2022/03/02 09:30:24;;;;;;;15.15;10.23;;;4.70;83.90;;;;;;5059397;28;20120;-57
2022/03/02 09:32:55;;;;;;;15.60;10.15;;;4.70;83.90;;;;;;5059089;28;20040;-57
2022/03/02 09:35:21;;;;;;;14.23;8.07;;;4.70;83.80;;;;;;5058087;28;20064;-57
2022/03/02 09:37:49;;;;;;;14.70;8.20;;;4.70;83.80;;;;;;5058874;28;20040;-57
2022/03/02 09:40:37;;;;;;;12.00;7.90;;;4.70;83.70;;;;;;5039911;28;20036;-57
2022/03/02 09:43:07;;;;;;;12.93;6.43;;;4.70;83.90;;;;;;5059152;28;20031;-57
2022/03/02 09:45:34;;;;;;;18.33;9.43;;;4.80;83.90;;;;;;5058217;28;20036;-57
2022/03/02 09:48:03;;;;;;;17.83;9.05;;;4.70;83.80;;;;;;5056770;28;20190;-57
2022/03/02 09:50:35;;;;;;;14.02;8.30;;;4.80;84.00;;;;;;5057053;28;20032;-57
2022/03/02 09:53:05;;;;;;;13.80;8.93;;;4.80;84.00;;;;;;5059349;28;20473;-57
2022/03/02 09:55:31;;;;;;;12.65;7.57;;;4.80;84.00;;;;;;5054521;28;20055;-57
2022/03/02 09:57:59;;;;;;;17.63;9.93;;;4.90;84.00;;;;;;5058842;28;20040;-57
2022/03/02 10:00:28;;;;;;;12.68;8.70;;;4.90;84.00;;;;;;5055238;28;20021;-57
2022/03/02 10:02:56;;;;;;;13.60;8.13;;;5.00;83.90;;;;;;5059456;28;20055;-57
2022/03/02 10:05:25;;;;;;;16.33;8.40;;;5.00;83.70;;;;;;5054693;28;20521;-57
2022/03/02 10:08:23;;;;;;;16.42;9.18;;;5.00;83.70;;;;;;5053170;28;20122;-57
2022/03/02 10:10:49;;;;;;;12.45;7.45;;;5.00;83.60;;;;;;5051252;28;20044;-57
2022/03/02 10:13:17;;;;;;;14.52;9.23;;;5.00;83.70;;;;;;5058641;28;20659;-57
2022/03/02 10:15:43;;;;;;;14.95;8.60;;;5.10;83.70;;;;;;5056774;28;20033;-57
2022/03/02 10:18:12;;;;;;;15.93;8.32;;;5.10;83.50;;;;;;5060689;28;20111;-57
2022/03/02 10:20:49;;;;;;;16.80;11.43;;;5.10;83.50;;;;;;5057881;28;20028;-58
2022/03/02 10:23:36;;;;;;;14.38;8.00;;;5.10;83.30;;;;;;5057367;28;20123;-56
2022/03/02 10:26:08;;;;;;;12.70;7.90;;;5.20;83.20;;;;;;5059992;28;20017;-58
2022/03/02 10:29:00;;;;;;;11.43;7.18;;;5.10;83.20;;;;;;5063790;28;20027;-55
2022/03/02 10:31:31;;;;;;;14.77;7.75;;;5.20;83.20;;;;;;5062659;28;20059;-59
2022/03/02 10:34:07;;;;;;;14.30;8.55;;;5.20;83.10;;;;;;5059522;28;20116;-58
2022/03/02 10:36:40;;;;;;;11.40;6.68;;;5.20;83.00;;;;;;5061875;28;20102;-58
2022/03/02 10:39:07;;;;;;;18.27;11.02;;;5.20;83.00;;;;;;5058605;28;20029;-58
2022/03/02 10:41:37;;;;;;;12.38;8.23;;;5.30;82.90;;;;;;5059930;28;20100;-58
2022/03/02 10:44:16;;;;;;;15.93;10.00;;;5.30;82.60;;;;;;5060312;28;20119;-58
2022/03/02 10:47:00;;;;;;;11.90;8.60;;;5.30;82.70;;;;;;5061203;28;20131;-58
2022/03/02 10:49:27;;;;;;;15.23;10.73;;;5.30;82.60;;;;;;5055733;28;20036;-58
2022/03/02 10:51:55;;;;;;;13.13;8.32;;;5.30;82.40;;;;;;5054775;28;20029;-57
2022/03/02 10:54:23;;;;;;;15.57;9.95;;;5.30;82.30;;;;;;5057428;28;20125;-58
2022/03/02 10:56:54;;;;;;;14.20;8.75;;;5.30;82.30;;;;;;5057937;28;20034;-58
2022/03/02 10:59:24;;;;;;;14.05;8.73;;;5.30;82.40;;;;;;5057112;28;20586;-58
2022/03/02 11:01:52;;;;;;;11.93;7.47;;;5.30;82.30;;;;;;5055667;28;20067;-58
2022/03/02 11:04:19;;;;;;;16.15;10.27;;;5.30;82.20;;;;;;5059767;28;20039;-57
2022/03/02 11:06:45;;;;;;;11.98;7.95;;;5.30;82.20;;;;;;5057536;28;20024;-57
2022/03/02 11:09:12;;;;;;;14.73;9.60;;;5.30;82.20;;;;;;5056712;28;20046;-58
2022/03/02 11:11:38;;;;;;;13.57;9.20;;;5.30;82.10;;;;;;5057700;28;20029;-59
2022/03/02 11:14:08;;;;;;;12.10;7.57;;;5.30;82.00;;;;;;5061899;28;20036;-58
2022/03/02 11:16:33;;;;;;;12.70;8.02;;;5.30;82.10;;;;;;5057895;28;20072;-59
2022/03/02 11:19:11;;;;;;;12.82;8.48;;;5.30;81.90;;;;;;5059358;28;20052;-58
2022/03/02 11:21:39;;;;;;;12.70;8.75;;;5.30;82.00;;;;;;5057184;28;20500;-58
2022/03/02 11:24:06;;;;;;;13.07;7.63;;;5.30;82.10;;;;;;5059461;28;20027;-58
2022/03/02 11:26:35;;;;;;;12.93;9.60;;;5.30;82.00;;;;;;5056200;28;20115;-57
2022/03/02 11:29:11;;;;;;;14.50;7.72;;;5.30;82.00;;;;;;5059592;28;20412;-59
2022/03/02 11:31:43;;;;;;;15.23;8.93;;;5.30;82.00;;;;;;5059151;28;20063;-59
2022/03/02 11:34:16;;;;;;;13.80;9.82;;;5.30;82.20;;;;;;5060199;28;20074;-57
2022/03/02 11:36:46;;;;;;;15.55;8.27;;;5.30;82.20;;;;;;5059113;28;20029;-59
2022/03/02 11:39:13;;;;;;;15.68;10.27;;;5.30;82.20;;;;;;5058907;28;20496;-60
2022/03/02 11:41:41;;;;;;;14.68;9.30;;;5.30;82.30;;;;;;5064920;28;20532;-58
2022/03/02 11:44:27;;;;;;;14.23;8.55;;;5.30;82.10;;;;;;5057246;28;20056;-58
2022/03/02 11:46:53;;;;;;;10.98;7.93;;;5.30;82.10;;;;;;5059761;28;20108;-59
2022/03/02 11:49:18;;;;;;;13.27;9.00;;;5.30;82.00;;;;;;5058945;28;20028;-58
2022/03/02 11:51:44;;;;;;;14.55;8.60;;;5.30;82.20;;;;;;5062483;28;20032;-58
2022/03/02 11:54:10;;;;;;;17.40;10.10;;;5.30;82.10;;;;;;5045471;28;20032;-59
2022/03/02 11:56:37;;;;;;;16.80;10.55;;;5.30;82.20;;;;;;5061609;28;20029;-59
2022/03/02 11:59:10;;;;;;;15.38;8.57;;;5.30;82.00;;;;;;5069079;28;20974;-58
2022/03/02 12:01:42;;;;;;;11.68;7.82;;;5.40;82.10;;;;;;5065283;28;20495;-57
2022/03/02 12:04:09;;;;;;;14.80;10.63;;;5.30;82.00;;;;;;5062808;28;20020;-58
2022/03/02 12:06:42;;;;;;;14.57;7.82;;;5.30;82.00;;;;;;5057565;28;20028;-56
2022/03/02 12:09:08;;;;;;;16.77;10.55;;;5.30;82.10;;;;;;5064998;28;20033;-57
2022/03/02 12:11:38;;;;;;;12.52;8.18;;;5.30;82.20;;;;;;5061046;28;20404;-58
2022/03/02 12:14:09;;;;;;;16.30;10.93;;;5.30;82.10;;;;;;5061833;28;20041;-57
2022/03/02 12:16:53;;;;;;;13.45;7.80;;;5.40;82.20;;;;;;5058945;28;20033;-58
2022/03/02 12:19:27;;;;;;;15.07;9.45;;;5.40;81.90;;;;;;5052757;28;20036;-59
2022/03/02 12:22:06;;;;;;;15.63;10.10;;;5.40;81.90;;;;;;5039951;28;20060;-58
2022/03/02 12:24:34;;;;;;;14.52;7.72;;;5.40;81.80;;;;;;5058841;28;20028;-58
2022/03/02 12:27:11;;;;;;;14.55;8.50;;;5.40;82.00;;;;;;5063191;28;20131;-57
2022/03/02 12:29:41;;;;;;;12.20;8.27;;;5.40;81.90;;;;;;5063090;28;20043;-58
2022/03/02 12:32:17;;;;;;;14.23;8.67;;;5.40;81.90;;;;;;5057363;28;20031;-60
2022/03/02 12:34:51;;;;;;;15.25;9.85;;;5.40;82.00;;;;;;5060557;28;20524;-60
2022/03/02 12:37:19;;;;;;;13.70;7.35;;;5.50;81.90;;;;;;5059896;28;20032;-58
2022/03/02 12:39:47;;;;;;;13.32;9.13;;;5.40;81.70;;;;;;5064877;28;20094;-58
2022/03/02 12:42:14;;;;;;;12.13;7.85;;;5.50;81.70;;;;;;5062544;28;20511;-59
2022/03/02 12:44:43;;;;;;;12.38;8.82;;;5.50;81.60;;;;;;5057133;28;20415;-58